sensor_id;sensor_type;location;lat;lon;timestamp;temperature;humidity
68511;SHT31;55512;50.102;19.958;2023-06-19T00:01:47;17.05;62.66
68511;SHT31;55512;50.102;19.958;2023-06-19T00:04:13;17.03;62.63
68511;SHT31;55512;50.102;19.958;2023-06-19T00:06:38;16.99;62.72
68511;SHT31;55512;50.102;19.958;2023-06-19T00:09:04;16.93;62.79
68511;SHT31;55512;50.102;19.958;2023-06-19T00:11:31;16.88;62.94
68511;SHT31;55512;50.102;19.958;2023-06-19T00:13:57;16.86;63.01
68511;SHT31;55512;50.102;19.958;2023-06-19T00:16:22;16.83;63.18
68511;SHT31;55512;50.102;19.958;2023-06-19T00:18:50;16.75;63.26
68511;SHT31;55512;50.102;19.958;2023-06-19T00:21:16;16.73;63.23
68511;SHT31;55512;50.102;19.958;2023-06-19T00:23:42;16.72;63.16
68511;SHT31;55512;50.102;19.958;2023-06-19T00:26:08;16.69;63.26
68511;SHT31;55512;50.102;19.958;2023-06-19T00:28:33;16.66;63.34
68511;SHT31;55512;50.102;19.958;2023-06-19T00:30:59;16.63;63.48
68511;SHT31;55512;50.102;19.958;2023-06-19T00:33:24;16.58;63.56
68511;SHT31;55512;50.102;19.958;2023-06-19T00:35:50;16.56;63.58
68511;SHT31;55512;50.102;19.958;2023-06-19T00:38:16;16.53;63.70
68511;SHT31;55512;50.102;19.958;2023-06-19T00:40:42;16.51;63.81
68511;SHT31;55512;50.102;19.958;2023-06-19T00:43:07;16.51;63.91
68511;SHT31;55512;50.102;19.958;2023-06-19T00:45:33;16.45;64.23
68511;SHT31;55512;50.102;19.958;2023-06-19T00:47:59;16.39;64.45
68511;SHT31;55512;50.102;19.958;2023-06-19T00:50:26;16.34;64.63
68511;SHT31;55512;50.102;19.958;2023-06-19T00:52:57;16.31;64.73
68511;SHT31;55512;50.102;19.958;2023-06-19T00:55:24;16.27;64.83
68511;SHT31;55512;50.102;19.958;2023-06-19T00:57:54;16.25;64.88
68511;SHT31;55512;50.102;19.958;2023-06-19T01:00:20;16.25;64.84
68511;SHT31;55512;50.102;19.958;2023-06-19T01:02:46;16.25;64.80
68511;SHT31;55512;50.102;19.958;2023-06-19T01:05:12;16.25;64.80
68511;SHT31;55512;50.102;19.958;2023-06-19T01:10:43;16.23;64.73
68511;SHT31;55512;50.102;19.958;2023-06-19T01:16:00;16.20;64.70
68511;SHT31;55512;50.102;19.958;2023-06-19T01:18:29;16.16;64.78
68511;SHT31;55512;50.102;19.958;2023-06-19T01:21:08;16.14;64.80
68511;SHT31;55512;50.102;19.958;2023-06-19T01:23:39;16.13;64.82
68511;SHT31;55512;50.102;19.958;2023-06-19T01:26:05;16.12;64.81
68511;SHT31;55512;50.102;19.958;2023-06-19T01:28:32;16.14;64.74
68511;SHT31;55512;50.102;19.958;2023-06-19T01:31:03;16.13;64.70
68511;SHT31;55512;50.102;19.958;2023-06-19T01:33:42;16.10;64.75
68511;SHT31;55512;50.102;19.958;2023-06-19T01:36:10;16.10;64.78
68511;SHT31;55512;50.102;19.958;2023-06-19T01:38:36;16.07;64.83
68511;SHT31;55512;50.102;19.958;2023-06-19T01:41:03;16.04;64.88
68511;SHT31;55512;50.102;19.958;2023-06-19T01:43:31;16.03;64.88
68511;SHT31;55512;50.102;19.958;2023-06-19T01:46:01;16.04;64.90
68511;SHT31;55512;50.102;19.958;2023-06-19T01:48:27;16.02;65.00
68511;SHT31;55512;50.102;19.958;2023-06-19T01:50:53;16.00;65.03
68511;SHT31;55512;50.102;19.958;2023-06-19T01:53:18;15.96;65.14
68511;SHT31;55512;50.102;19.958;2023-06-19T01:55:44;15.88;65.33
68511;SHT31;55512;50.102;19.958;2023-06-19T01:58:10;15.86;65.46
68511;SHT31;55512;50.102;19.958;2023-06-19T02:00:36;15.84;65.61
68511;SHT31;55512;50.102;19.958;2023-06-19T02:03:02;15.82;65.71
68511;SHT31;55512;50.102;19.958;2023-06-19T02:05:31;15.74;65.92
68511;SHT31;55512;50.102;19.958;2023-06-19T02:07:57;15.73;66.02
68511;SHT31;55512;50.102;19.958;2023-06-19T02:10:22;15.69;66.06
68511;SHT31;55512;50.102;19.958;2023-06-19T02:12:48;15.70;66.03
68511;SHT31;55512;50.102;19.958;2023-06-19T02:15:13;15.71;66.13
68511;SHT31;55512;50.102;19.958;2023-06-19T02:17:39;15.71;66.18
68511;SHT31;55512;50.102;19.958;2023-06-19T02:20:07;15.70;66.21
68511;SHT31;55512;50.102;19.958;2023-06-19T02:22:37;15.68;66.24
68511;SHT31;55512;50.102;19.958;2023-06-19T02:25:04;15.68;66.22
68511;SHT31;55512;50.102;19.958;2023-06-19T02:27:31;15.68;66.24
68511;SHT31;55512;50.102;19.958;2023-06-19T02:29:57;15.67;66.28
68511;SHT31;55512;50.102;19.958;2023-06-19T02:32:22;15.69;66.15
68511;SHT31;55512;50.102;19.958;2023-06-19T02:34:48;15.70;66.07
68511;SHT31;55512;50.102;19.958;2023-06-19T02:37:13;15.69;65.99
68511;SHT31;55512;50.102;19.958;2023-06-19T02:39:39;15.64;66.00
68511;SHT31;55512;50.102;19.958;2023-06-19T02:42:04;15.62;66.06
68511;SHT31;55512;50.102;19.958;2023-06-19T02:44:31;15.61;66.18
68511;SHT31;55512;50.102;19.958;2023-06-19T02:46:57;15.62;66.25
68511;SHT31;55512;50.102;19.958;2023-06-19T02:49:22;15.61;66.29
68511;SHT31;55512;50.102;19.958;2023-06-19T02:51:48;15.58;66.30
68511;SHT31;55512;50.102;19.958;2023-06-19T02:54:14;15.56;66.36
68511;SHT31;55512;50.102;19.958;2023-06-19T02:56:39;15.55;66.46
68511;SHT31;55512;50.102;19.958;2023-06-19T02:59:05;15.54;66.52
68511;SHT31;55512;50.102;19.958;2023-06-19T03:01:31;15.54;66.60
68511;SHT31;55512;50.102;19.958;2023-06-19T03:03:57;15.56;66.60
68511;SHT31;55512;50.102;19.958;2023-06-19T03:06:22;15.57;66.56
68511;SHT31;55512;50.102;19.958;2023-06-19T03:08:48;15.58;66.53
68511;SHT31;55512;50.102;19.958;2023-06-19T03:11:13;15.60;66.58
68511;SHT31;55512;50.102;19.958;2023-06-19T03:13:47;15.60;66.61
68511;SHT31;55512;50.102;19.958;2023-06-19T03:16:17;15.61;66.67
68511;SHT31;55512;50.102;19.958;2023-06-19T03:18:43;15.61;66.71
68511;SHT31;55512;50.102;19.958;2023-06-19T03:21:10;15.59;66.79
68511;SHT31;55512;50.102;19.958;2023-06-19T03:23:37;15.60;66.83
68511;SHT31;55512;50.102;19.958;2023-06-19T03:26:02;15.62;66.84
68511;SHT31;55512;50.102;19.958;2023-06-19T03:28:28;15.65;66.80
68511;SHT31;55512;50.102;19.958;2023-06-19T03:30:54;15.64;66.89
68511;SHT31;55512;50.102;19.958;2023-06-19T03:33:20;15.64;66.92
68511;SHT31;55512;50.102;19.958;2023-06-19T03:35:45;15.66;66.92
68511;SHT31;55512;50.102;19.958;2023-06-19T03:38:11;15.67;66.95
68511;SHT31;55512;50.102;19.958;2023-06-19T03:40:36;15.64;67.18
68511;SHT31;55512;50.102;19.958;2023-06-19T03:43:02;15.63;67.27
68511;SHT31;55512;50.102;19.958;2023-06-19T03:45:27;15.65;67.24
68511;SHT31;55512;50.102;19.958;2023-06-19T03:47:53;15.77;67.04
68511;SHT31;55512;50.102;19.958;2023-06-19T03:50:18;15.79;67.12
68511;SHT31;55512;50.102;19.958;2023-06-19T03:52:44;15.82;67.20
68511;SHT31;55512;50.102;19.958;2023-06-19T03:55:10;15.89;67.07
68511;SHT31;55512;50.102;19.958;2023-06-19T03:57:36;15.95;66.92
68511;SHT31;55512;50.102;19.958;2023-06-19T04:00:01;15.99;66.90
68511;SHT31;55512;50.102;19.958;2023-06-19T04:02:32;16.00;66.96
68511;SHT31;55512;50.102;19.958;2023-06-19T04:04:58;16.06;66.89
68511;SHT31;55512;50.102;19.958;2023-06-19T04:07:23;16.10;66.83
68511;SHT31;55512;50.102;19.958;2023-06-19T04:09:49;16.15;66.62
68511;SHT31;55512;50.102;19.958;2023-06-19T04:12:14;16.20;66.59
68511;SHT31;55512;50.102;19.958;2023-06-19T04:14:40;16.24;66.60
68511;SHT31;55512;50.102;19.958;2023-06-19T04:17:05;16.28;66.58
68511;SHT31;55512;50.102;19.958;2023-06-19T04:19:31;16.34;66.50
68511;SHT31;55512;50.102;19.958;2023-06-19T04:21:56;16.39;66.50
68511;SHT31;55512;50.102;19.958;2023-06-19T04:24:22;16.43;66.59
68511;SHT31;55512;50.102;19.958;2023-06-19T04:26:47;16.47;66.58
68511;SHT31;55512;50.102;19.958;2023-06-19T04:29:12;16.53;66.53
68511;SHT31;55512;50.102;19.958;2023-06-19T04:31:43;16.57;66.49
68511;SHT31;55512;50.102;19.958;2023-06-19T04:34:11;16.61;66.44
68511;SHT31;55512;50.102;19.958;2023-06-19T04:36:39;16.66;66.47
68511;SHT31;55512;50.102;19.958;2023-06-19T04:39:06;16.70;66.48
68511;SHT31;55512;50.102;19.958;2023-06-19T04:41:32;16.72;66.63
68511;SHT31;55512;50.102;19.958;2023-06-19T04:43:57;16.81;66.57
68511;SHT31;55512;50.102;19.958;2023-06-19T04:46:23;16.86;66.69
68511;SHT31;55512;50.102;19.958;2023-06-19T04:48:48;16.96;66.59
68511;SHT31;55512;50.102;19.958;2023-06-19T04:51:17;17.05;66.45
68511;SHT31;55512;50.102;19.958;2023-06-19T04:53:46;17.10;66.34
68511;SHT31;55512;50.102;19.958;2023-06-19T04:56:14;17.20;66.11
68511;SHT31;55512;50.102;19.958;2023-06-19T04:58:40;17.25;65.98
68511;SHT31;55512;50.102;19.958;2023-06-19T05:01:11;17.29;65.92
68511;SHT31;55512;50.102;19.958;2023-06-19T05:03:38;17.36;65.87
68511;SHT31;55512;50.102;19.958;2023-06-19T05:06:05;17.43;65.76
68511;SHT31;55512;50.102;19.958;2023-06-19T05:08:30;17.47;65.83
68511;SHT31;55512;50.102;19.958;2023-06-19T05:10:56;17.56;65.73
68511;SHT31;55512;50.102;19.958;2023-06-19T05:13:22;17.64;65.58
68511;SHT31;55512;50.102;19.958;2023-06-19T05:15:49;17.73;65.44
68511;SHT31;55512;50.102;19.958;2023-06-19T05:18:15;17.83;65.29
68511;SHT31;55512;50.102;19.958;2023-06-19T05:20:41;17.95;65.12
68511;SHT31;55512;50.102;19.958;2023-06-19T05:23:07;18.03;65.06
68511;SHT31;55512;50.102;19.958;2023-06-19T05:25:33;18.09;64.91
68511;SHT31;55512;50.102;19.958;2023-06-19T05:27:58;18.19;64.76
68511;SHT31;55512;50.102;19.958;2023-06-19T05:30:24;18.28;64.58
68511;SHT31;55512;50.102;19.958;2023-06-19T05:32:49;18.41;64.31
68511;SHT31;55512;50.102;19.958;2023-06-19T05:35:15;18.49;64.16
68511;SHT31;55512;50.102;19.958;2023-06-19T05:37:40;18.59;63.96
68511;SHT31;55512;50.102;19.958;2023-06-19T05:40:08;18.67;63.82
68511;SHT31;55512;50.102;19.958;2023-06-19T05:42:37;18.78;63.78
68511;SHT31;55512;50.102;19.958;2023-06-19T05:45:03;18.90;63.67
68511;SHT31;55512;50.102;19.958;2023-06-19T05:47:29;18.95;63.47
68511;SHT31;55512;50.102;19.958;2023-06-19T05:49:56;19.03;63.18
68511;SHT31;55512;50.102;19.958;2023-06-19T05:52:22;19.11;63.01
68511;SHT31;55512;50.102;19.958;2023-06-19T05:54:48;19.21;62.92
68511;SHT31;55512;50.102;19.958;2023-06-19T05:57:14;19.34;62.74
68511;SHT31;55512;50.102;19.958;2023-06-19T05:59:48;19.41;62.58
68511;SHT31;55512;50.102;19.958;2023-06-19T06:02:16;19.48;62.48
68511;SHT31;55512;50.102;19.958;2023-06-19T06:04:44;19.57;62.31
68511;SHT31;55512;50.102;19.958;2023-06-19T06:07:09;19.64;62.00
68511;SHT31;55512;50.102;19.958;2023-06-19T06:09:35;19.74;61.78
68511;SHT31;55512;50.102;19.958;2023-06-19T06:12:01;19.84;61.60
68511;SHT31;55512;50.102;19.958;2023-06-19T06:14:26;19.93;61.18
68511;SHT31;55512;50.102;19.958;2023-06-19T06:16:52;20.02;60.70
68511;SHT31;55512;50.102;19.958;2023-06-19T06:19:19;20.15;60.36
68511;SHT31;55512;50.102;19.958;2023-06-19T06:21:47;20.23;60.10
68511;SHT31;55512;50.102;19.958;2023-06-19T06:24:14;20.39;59.75
68511;SHT31;55512;50.102;19.958;2023-06-19T06:26:39;20.51;59.36
68511;SHT31;55512;50.102;19.958;2023-06-19T06:29:05;20.61;58.80
68511;SHT31;55512;50.102;19.958;2023-06-19T06:31:30;20.71;58.49
68511;SHT31;55512;50.102;19.958;2023-06-19T06:33:56;20.81;58.19
68511;SHT31;55512;50.102;19.958;2023-06-19T06:36:21;20.90;58.13
68511;SHT31;55512;50.102;19.958;2023-06-19T06:38:47;20.98;58.00
68511;SHT31;55512;50.102;19.958;2023-06-19T06:41:12;21.08;57.78
68511;SHT31;55512;50.102;19.958;2023-06-19T06:43:40;21.17;57.53
68511;SHT31;55512;50.102;19.958;2023-06-19T06:46:07;21.28;57.23
68511;SHT31;55512;50.102;19.958;2023-06-19T06:48:35;21.35;56.99
68511;SHT31;55512;50.102;19.958;2023-06-19T06:51:01;21.36;56.91
68511;SHT31;55512;50.102;19.958;2023-06-19T06:53:27;21.43;56.71
68511;SHT31;55512;50.102;19.958;2023-06-19T06:55:53;21.50;56.53
68511;SHT31;55512;50.102;19.958;2023-06-19T06:58:20;21.62;56.10
68511;SHT31;55512;50.102;19.958;2023-06-19T07:00:46;21.70;55.67
68511;SHT31;55512;50.102;19.958;2023-06-19T07:03:12;21.86;55.20
68511;SHT31;55512;50.102;19.958;2023-06-19T07:05:38;21.89;55.17
68511;SHT31;55512;50.102;19.958;2023-06-19T07:08:03;21.92;54.99
68511;SHT31;55512;50.102;19.958;2023-06-19T07:10:29;22.02;54.58
68511;SHT31;55512;50.102;19.958;2023-06-19T07:12:55;22.10;54.32
68511;SHT31;55512;50.102;19.958;2023-06-19T07:15:21;22.20;54.08
68511;SHT31;55512;50.102;19.958;2023-06-19T07:17:46;22.33;53.88
68511;SHT31;55512;50.102;19.958;2023-06-19T07:20:12;22.48;53.56
68511;SHT31;55512;50.102;19.958;2023-06-19T07:22:39;22.65;52.80
68511;SHT31;55512;50.102;19.958;2023-06-19T07:25:05;22.78;52.19
68511;SHT31;55512;50.102;19.958;2023-06-19T07:27:31;22.91;51.74
68511;SHT31;55512;50.102;19.958;2023-06-19T07:29:57;23.02;51.42
68511;SHT31;55512;50.102;19.958;2023-06-19T07:32:23;23.13;51.29
68511;SHT31;55512;50.102;19.958;2023-06-19T07:34:48;23.31;50.99
68511;SHT31;55512;50.102;19.958;2023-06-19T07:37:14;23.49;50.60
68511;SHT31;55512;50.102;19.958;2023-06-19T07:39:46;23.54;50.46
68511;SHT31;55512;50.102;19.958;2023-06-19T07:42:14;23.64;49.92
68511;SHT31;55512;50.102;19.958;2023-06-19T07:44:41;23.72;49.83
68511;SHT31;55512;50.102;19.958;2023-06-19T07:47:08;23.83;49.89
68511;SHT31;55512;50.102;19.958;2023-06-19T07:49:34;23.92;49.49
68511;SHT31;55512;50.102;19.958;2023-06-19T07:52:01;24.07;49.17
68511;SHT31;55512;50.102;19.958;2023-06-19T07:54:27;24.14;48.83
68511;SHT31;55512;50.102;19.958;2023-06-19T07:56:53;24.24;48.78
68511;SHT31;55512;50.102;19.958;2023-06-19T07:59:19;24.34;48.66
68511;SHT31;55512;50.102;19.958;2023-06-19T08:01:45;24.44;48.58
68511;SHT31;55512;50.102;19.958;2023-06-19T08:04:11;24.59;48.20
68511;SHT31;55512;50.102;19.958;2023-06-19T08:06:36;24.73;48.02
68511;SHT31;55512;50.102;19.958;2023-06-19T08:09:02;24.80;47.81
68511;SHT31;55512;50.102;19.958;2023-06-19T08:11:28;24.89;47.34
68511;SHT31;55512;50.102;19.958;2023-06-19T08:13:53;24.95;47.17
68511;SHT31;55512;50.102;19.958;2023-06-19T08:16:19;25.02;47.24
68511;SHT31;55512;50.102;19.958;2023-06-19T08:18:45;25.10;46.98
68511;SHT31;55512;50.102;19.958;2023-06-19T08:21:11;25.11;46.61
68511;SHT31;55512;50.102;19.958;2023-06-19T08:23:38;25.13;46.60
68511;SHT31;55512;50.102;19.958;2023-06-19T08:26:05;25.18;46.72
68511;SHT31;55512;50.102;19.958;2023-06-19T08:28:33;25.28;46.60
68511;SHT31;55512;50.102;19.958;2023-06-19T08:30:59;25.40;46.40
68511;SHT31;55512;50.102;19.958;2023-06-19T08:33:25;25.50;46.03
68511;SHT31;55512;50.102;19.958;2023-06-19T08:35:51;25.56;45.36
68511;SHT31;55512;50.102;19.958;2023-06-19T08:38:17;25.66;44.96
68511;SHT31;55512;50.102;19.958;2023-06-19T08:40:44;25.76;44.43
68511;SHT31;55512;50.102;19.958;2023-06-19T08:43:10;25.81;44.14
68511;SHT31;55512;50.102;19.958;2023-06-19T08:45:36;25.88;43.63
68511;SHT31;55512;50.102;19.958;2023-06-19T08:48:02;25.98;43.47
68511;SHT31;55512;50.102;19.958;2023-06-19T08:50:29;26.09;43.55
68511;SHT31;55512;50.102;19.958;2023-06-19T08:52:56;26.23;43.53
68511;SHT31;55512;50.102;19.958;2023-06-19T08:55:22;26.23;43.23
68511;SHT31;55512;50.102;19.958;2023-06-19T08:57:49;26.29;43.09
68511;SHT31;55512;50.102;19.958;2023-06-19T09:00:28;26.39;42.89
68511;SHT31;55512;50.102;19.958;2023-06-19T09:03:01;26.49;42.57
68511;SHT31;55512;50.102;19.958;2023-06-19T09:05:28;26.61;42.43
68511;SHT31;55512;50.102;19.958;2023-06-19T09:07:55;26.78;42.13
68511;SHT31;55512;50.102;19.958;2023-06-19T09:10:23;26.89;41.70
68511;SHT31;55512;50.102;19.958;2023-06-19T09:13:23;26.98;41.60
68511;SHT31;55512;50.102;19.958;2023-06-19T09:15:41;27.02;41.05
68511;SHT31;55512;50.102;19.958;2023-06-19T09:18:08;27.00;40.92
68511;SHT31;55512;50.102;19.958;2023-06-19T09:20:40;27.03;40.92
68511;SHT31;55512;50.102;19.958;2023-06-19T09:23:09;27.08;40.83
68511;SHT31;55512;50.102;19.958;2023-06-19T09:25:50;27.03;40.04
68511;SHT31;55512;50.102;19.958;2023-06-19T09:28:23;26.82;39.84
68511;SHT31;55512;50.102;19.958;2023-06-19T09:31:01;26.76;40.48
68511;SHT31;55512;50.102;19.958;2023-06-19T09:33:31;26.79;40.73
68511;SHT31;55512;50.102;19.958;2023-06-19T09:36:00;26.87;40.94
68511;SHT31;55512;50.102;19.958;2023-06-19T09:38:28;26.96;40.84
68511;SHT31;55512;50.102;19.958;2023-06-19T09:40:57;27.08;40.33
68511;SHT31;55512;50.102;19.958;2023-06-19T09:43:36;27.20;39.83
68511;SHT31;55512;50.102;19.958;2023-06-19T09:46:03;27.33;39.50
68511;SHT31;55512;50.102;19.958;2023-06-19T09:48:31;27.46;39.23
68511;SHT31;55512;50.102;19.958;2023-06-19T09:51:02;27.54;39.03
68511;SHT31;55512;50.102;19.958;2023-06-19T09:53:45;27.64;39.35
68511;SHT31;55512;50.102;19.958;2023-06-19T09:56:14;27.62;39.07
68511;SHT31;55512;50.102;19.958;2023-06-19T09:58:44;27.47;38.88
68511;SHT31;55512;50.102;19.958;2023-06-19T10:01:10;27.41;38.47
68511;SHT31;55512;50.102;19.958;2023-06-19T10:03:37;27.44;39.41
68511;SHT31;55512;50.102;19.958;2023-06-19T10:06:05;27.55;39.49
68511;SHT31;55512;50.102;19.958;2023-06-19T10:08:41;27.57;39.29
68511;SHT31;55512;50.102;19.958;2023-06-19T10:11:09;27.56;38.68
68511;SHT31;55512;50.102;19.958;2023-06-19T10:13:36;27.50;38.82
68511;SHT31;55512;50.102;19.958;2023-06-19T10:16:05;27.51;38.94
68511;SHT31;55512;50.102;19.958;2023-06-19T10:18:32;27.52;39.21
68511;SHT31;55512;50.102;19.958;2023-06-19T10:21:20;27.61;39.16
68511;SHT31;55512;50.102;19.958;2023-06-19T10:23:53;27.70;39.24
68511;SHT31;55512;50.102;19.958;2023-06-19T10:26:31;27.79;39.31
68511;SHT31;55512;50.102;19.958;2023-06-19T10:28:59;27.93;39.35
68511;SHT31;55512;50.102;19.958;2023-06-19T10:31:24;28.04;39.07
68511;SHT31;55512;50.102;19.958;2023-06-19T10:33:50;28.15;39.51
68511;SHT31;55512;50.102;19.958;2023-06-19T10:36:16;28.30;39.46
68511;SHT31;55512;50.102;19.958;2023-06-19T10:38:45;28.48;39.24
68511;SHT31;55512;50.102;19.958;2023-06-19T10:41:24;28.69;38.43
68511;SHT31;55512;50.102;19.958;2023-06-19T10:46:22;28.85;38.14
68511;SHT31;55512;50.102;19.958;2023-06-19T10:48:52;28.81;37.92
68511;SHT31;55512;50.102;19.958;2023-06-19T10:51:24;28.59;38.39
68511;SHT31;55512;50.102;19.958;2023-06-19T10:53:50;28.29;38.54
68511;SHT31;55512;50.102;19.958;2023-06-19T10:56:15;28.05;39.36
68511;SHT31;55512;50.102;19.958;2023-06-19T10:58:45;28.12;39.83
68511;SHT31;55512;50.102;19.958;2023-06-19T11:01:11;28.28;39.77
68511;SHT31;55512;50.102;19.958;2023-06-19T11:03:36;28.44;39.72
68511;SHT31;55512;50.102;19.958;2023-06-19T11:06:02;28.60;39.16
68511;SHT31;55512;50.102;19.958;2023-06-19T11:08:28;28.71;39.01
68511;SHT31;55512;50.102;19.958;2023-06-19T11:10:54;28.85;38.66
68511;SHT31;55512;50.102;19.958;2023-06-19T11:13:20;28.99;38.89
68511;SHT31;55512;50.102;19.958;2023-06-19T11:15:49;29.14;38.83
68511;SHT31;55512;50.102;19.958;2023-06-19T11:18:16;29.32;38.32
68511;SHT31;55512;50.102;19.958;2023-06-19T11:20:52;29.45;37.69
68511;SHT31;55512;50.102;19.958;2023-06-19T11:23:28;29.56;37.31
68511;SHT31;55512;50.102;19.958;2023-06-19T11:26:02;29.64;37.29
68511;SHT31;55512;50.102;19.958;2023-06-19T11:28:29;29.72;37.42
68511;SHT31;55512;50.102;19.958;2023-06-19T11:30:58;29.78;37.07
68511;SHT31;55512;50.102;19.958;2023-06-19T11:33:29;29.73;36.76
68511;SHT31;55512;50.102;19.958;2023-06-19T11:35:58;29.73;36.79
68511;SHT31;55512;50.102;19.958;2023-06-19T11:38:26;29.81;36.46
68511;SHT31;55512;50.102;19.958;2023-06-19T11:40:55;29.79;35.23
68511;SHT31;55512;50.102;19.958;2023-06-19T11:43:25;29.76;34.94
68511;SHT31;55512;50.102;19.958;2023-06-19T11:45:52;29.76;35.22
68511;SHT31;55512;50.102;19.958;2023-06-19T11:48:22;29.74;35.52
68511;SHT31;55512;50.102;19.958;2023-06-19T11:50:51;29.79;35.39
68511;SHT31;55512;50.102;19.958;2023-06-19T11:53:21;29.82;35.12
68511;SHT31;55512;50.102;19.958;2023-06-19T11:55:49;29.81;34.91
68511;SHT31;55512;50.102;19.958;2023-06-19T11:58:16;29.82;35.19
68511;SHT31;55512;50.102;19.958;2023-06-19T12:00:42;29.88;34.99
68511;SHT31;55512;50.102;19.958;2023-06-19T12:03:08;29.89;35.00
68511;SHT31;55512;50.102;19.958;2023-06-19T12:05:34;29.83;35.40
68511;SHT31;55512;50.102;19.958;2023-06-19T12:08:01;29.75;35.26
68511;SHT31;55512;50.102;19.958;2023-06-19T12:10:28;29.81;35.39
68511;SHT31;55512;50.102;19.958;2023-06-19T12:12:54;29.90;35.56
68511;SHT31;55512;50.102;19.958;2023-06-19T12:15:20;29.78;34.73
68511;SHT31;55512;50.102;19.958;2023-06-19T12:17:46;29.66;35.81
68511;SHT31;55512;50.102;19.958;2023-06-19T12:20:12;29.75;35.55
68511;SHT31;55512;50.102;19.958;2023-06-19T12:22:40;29.78;35.17
68511;SHT31;55512;50.102;19.958;2023-06-19T12:25:07;29.65;35.32
68511;SHT31;55512;50.102;19.958;2023-06-19T12:27:33;29.67;35.44
68511;SHT31;55512;50.102;19.958;2023-06-19T12:29:59;29.59;34.90
68511;SHT31;55512;50.102;19.958;2023-06-19T12:32:25;29.51;34.96
68511;SHT31;55512;50.102;19.958;2023-06-19T12:34:50;29.57;35.23
68511;SHT31;55512;50.102;19.958;2023-06-19T12:37:19;29.72;34.57
68511;SHT31;55512;50.102;19.958;2023-06-19T12:39:49;29.86;34.12
68511;SHT31;55512;50.102;19.958;2023-06-19T12:42:16;30.03;33.96
68511;SHT31;55512;50.102;19.958;2023-06-19T12:44:41;30.18;33.69
68511;SHT31;55512;50.102;19.958;2023-06-19T12:47:09;30.20;33.47
68511;SHT31;55512;50.102;19.958;2023-06-19T12:49:35;30.20;33.43
68511;SHT31;55512;50.102;19.958;2023-06-19T12:52:01;30.24;33.38
68511;SHT31;55512;50.102;19.958;2023-06-19T12:54:27;30.31;33.12
68511;SHT31;55512;50.102;19.958;2023-06-19T12:56:53;30.38;33.04
68511;SHT31;55512;50.102;19.958;2023-06-19T12:59:19;30.28;32.27
68511;SHT31;55512;50.102;19.958;2023-06-19T13:01:44;30.17;32.51
68511;SHT31;55512;50.102;19.958;2023-06-19T13:04:10;30.09;34.09
68511;SHT31;55512;50.102;19.958;2023-06-19T13:06:38;29.94;35.69
68511;SHT31;55512;50.102;19.958;2023-06-19T13:09:05;29.93;35.99
68511;SHT31;55512;50.102;19.958;2023-06-19T13:11:31;29.94;36.07
68511;SHT31;55512;50.102;19.958;2023-06-19T13:13:59;30.06;36.01
68511;SHT31;55512;50.102;19.958;2023-06-19T13:16:25;30.14;35.98
68511;SHT31;55512;50.102;19.958;2023-06-19T13:18:51;30.25;35.70
68511;SHT31;55512;50.102;19.958;2023-06-19T13:21:17;30.12;35.50
68511;SHT31;55512;50.102;19.958;2023-06-19T13:23:43;30.08;35.62
68511;SHT31;55512;50.102;19.958;2023-06-19T13:26:08;30.16;35.22
68511;SHT31;55512;50.102;19.958;2023-06-19T13:28:34;30.26;35.36
68511;SHT31;55512;50.102;19.958;2023-06-19T13:31:01;30.30;35.12
68511;SHT31;55512;50.102;19.958;2023-06-19T13:33:27;30.30;35.23
68511;SHT31;55512;50.102;19.958;2023-06-19T13:35:53;30.43;35.48
68511;SHT31;55512;50.102;19.958;2023-06-19T13:38:18;30.69;35.16
68511;SHT31;55512;50.102;19.958;2023-06-19T13:40:44;30.91;35.02
68511;SHT31;55512;50.102;19.958;2023-06-19T13:43:09;31.11;34.74
68511;SHT31;55512;50.102;19.958;2023-06-19T13:45:35;31.28;34.15
68511;SHT31;55512;50.102;19.958;2023-06-19T13:48:03;31.51;34.15
68511;SHT31;55512;50.102;19.958;2023-06-19T13:50:30;31.73;33.86
68511;SHT31;55512;50.102;19.958;2023-06-19T13:52:57;31.92;33.09
68511;SHT31;55512;50.102;19.958;2023-06-19T13:55:24;31.98;32.39
68511;SHT31;55512;50.102;19.958;2023-06-19T13:57:49;32.04;32.54
68511;SHT31;55512;50.102;19.958;2023-06-19T14:00:15;32.20;32.89
68511;SHT31;55512;50.102;19.958;2023-06-19T14:02:43;32.39;32.14
68511;SHT31;55512;50.102;19.958;2023-06-19T14:05:09;32.49;31.96
68511;SHT31;55512;50.102;19.958;2023-06-19T14:07:35;32.70;31.59
68511;SHT31;55512;50.102;19.958;2023-06-19T14:10:02;32.98;31.34
68511;SHT31;55512;50.102;19.958;2023-06-19T14:12:29;33.23;30.85
68511;SHT31;55512;50.102;19.958;2023-06-19T14:14:55;33.45;30.53
68511;SHT31;55512;50.102;19.958;2023-06-19T14:17:21;33.64;29.97
68511;SHT31;55512;50.102;19.958;2023-06-19T14:19:47;33.67;29.87
68511;SHT31;55512;50.102;19.958;2023-06-19T14:22:14;33.66;29.82
68511;SHT31;55512;50.102;19.958;2023-06-19T14:24:39;33.49;29.75
68511;SHT31;55512;50.102;19.958;2023-06-19T14:27:05;33.05;30.81
68511;SHT31;55512;50.102;19.958;2023-06-19T14:29:31;32.85;31.43
68511;SHT31;55512;50.102;19.958;2023-06-19T14:31:56;32.80;31.32
68511;SHT31;55512;50.102;19.958;2023-06-19T14:34:22;32.54;31.34
68511;SHT31;55512;50.102;19.958;2023-06-19T14:36:47;32.31;31.89
68511;SHT31;55512;50.102;19.958;2023-06-19T14:39:13;32.32;32.01
68511;SHT31;55512;50.102;19.958;2023-06-19T14:41:39;32.42;31.83
68511;SHT31;55512;50.102;19.958;2023-06-19T14:44:04;32.49;31.77
68511;SHT31;55512;50.102;19.958;2023-06-19T14:46:33;32.54;31.70
68511;SHT31;55512;50.102;19.958;2023-06-19T14:49:03;32.65;31.69
68511;SHT31;55512;50.102;19.958;2023-06-19T14:51:30;32.78;31.61
68511;SHT31;55512;50.102;19.958;2023-06-19T14:53:56;33.05;31.63
68511;SHT31;55512;50.102;19.958;2023-06-19T14:56:21;33.39;31.71
68511;SHT31;55512;50.102;19.958;2023-06-19T14:58:47;33.78;31.05
68511;SHT31;55512;50.102;19.958;2023-06-19T15:01:13;33.93;30.56
68511;SHT31;55512;50.102;19.958;2023-06-19T15:03:39;34.02;30.44
68511;SHT31;55512;50.102;19.958;2023-06-19T15:06:04;34.04;30.52
68511;SHT31;55512;50.102;19.958;2023-06-19T15:08:30;34.08;30.36
68511;SHT31;55512;50.102;19.958;2023-06-19T15:10:56;34.82;29.83
68511;SHT31;55512;50.102;19.958;2023-06-19T15:13:22;35.09;29.41
68511;SHT31;55512;50.102;19.958;2023-06-19T15:15:48;35.09;29.13
68511;SHT31;55512;50.102;19.958;2023-06-19T15:18:16;35.89;28.38
68511;SHT31;55512;50.102;19.958;2023-06-19T15:20:41;37.05;27.73
68511;SHT31;55512;50.102;19.958;2023-06-19T15:23:07;37.69;27.13